createdAt,value
2019-05-13T00:01:16.136Z,43.74
2019-05-13T00:03:44.148Z,43.71
2019-05-13T00:06:13.419Z,43.84
2019-05-13T00:08:43.868Z,43.86
2019-05-13T00:11:13.656Z,43.87
2019-05-13T00:13:44.178Z,43.83
2019-05-13T00:16:14.105Z,43.85
2019-05-13T00:18:44.387Z,43.89
2019-05-13T00:21:14.004Z,43.92
2019-05-13T00:23:44.179Z,43.88
2019-05-13T00:26:14.100Z,43.91
2019-05-13T00:28:44.227Z,43.87
2019-05-13T00:31:13.789Z,43.89
2019-05-13T00:33:44.271Z,43.85
2019-05-13T00:36:14.257Z,44.00
2019-05-13T00:38:44.031Z,43.97
2019-05-13T00:41:14.174Z,43.94
2019-05-13T00:43:44.452Z,43.96
2019-05-13T00:46:14.203Z,44.05
2019-05-13T00:48:43.966Z,44.06
2019-05-13T00:51:14.128Z,44.12
2019-05-13T00:53:44.038Z,44.08
2019-05-13T00:56:13.363Z,44.15
2019-05-13T00:58:43.751Z,44.17
2019-05-13T01:01:13.796Z,44.17
2019-05-13T01:03:41.339Z,44.24
2019-05-13T01:06:09.543Z,44.31
2019-05-13T01:08:37.883Z,44.23
2019-05-13T01:11:05.930Z,44.24
2019-05-13T01:13:34.315Z,44.25
2019-05-13T01:16:03.725Z,44.25
2019-05-13T01:18:33.991Z,44.23
2019-05-13T01:21:04.444Z,44.27
2019-05-13T01:23:34.219Z,44.29
2019-05-13T01:26:03.942Z,44.36
2019-05-13T01:28:31.716Z,44.39
2019-05-13T01:30:59.807Z,44.33
2019-05-13T01:33:27.851Z,44.31
2019-05-13T01:35:55.954Z,44.36
2019-05-13T01:38:24.268Z,44.38
2019-05-13T01:40:53.963Z,44.38
2019-05-13T01:43:24.531Z,44.43
2019-05-13T01:45:53.715Z,44.41
2019-05-13T01:48:24.039Z,44.45
2019-05-13T01:50:53.331Z,44.43
2019-05-13T01:53:21.620Z,44.40
2019-05-13T01:55:49.878Z,44.53
2019-05-13T01:58:17.969Z,44.56
2019-05-13T02:00:47.049Z,44.58
2019-05-13T02:03:15.142Z,44.61
2019-05-13T02:05:44.378Z,44.62
2019-05-13T02:08:14.265Z,44.59
2019-05-13T02:10:58.498Z,44.63
2019-05-13T02:13:26.589Z,44.66
2019-05-13T02:15:55.183Z,44.68
2019-05-13T02:18:25.008Z,44.64
2019-05-13T02:20:55.320Z,44.63
2019-05-13T02:23:23.863Z,44.59
2019-05-13T02:25:54.306Z,44.65
2019-05-13T02:28:24.335Z,44.68
2019-05-13T02:30:55.299Z,44.67
2019-05-13T02:33:23.138Z,44.62
2019-05-13T02:35:53.110Z,44.61
2019-05-13T02:38:28.367Z,44.64
2019-05-13T02:40:52.778Z,44.69
2019-05-13T02:43:23.113Z,44.78
2019-05-13T02:45:53.188Z,44.79
2019-05-13T02:48:23.362Z,44.81
2019-05-13T02:50:53.035Z,44.79
2019-05-13T02:53:23.233Z,44.75
2019-05-13T02:55:52.483Z,44.73
2019-05-13T02:58:23.642Z,44.75
2019-05-13T03:00:53.122Z,44.77
2019-05-13T03:03:22.660Z,44.78
2019-05-13T03:05:52.356Z,44.80
2019-05-13T03:08:35.206Z,44.80
2019-05-13T03:10:48.572Z,44.81
2019-05-13T03:13:16.745Z,44.87
2019-05-13T03:15:58.131Z,44.87
2019-05-13T03:18:26.223Z,44.88
2019-05-13T03:20:54.269Z,44.89
2019-05-13T03:23:23.071Z,44.82
2019-05-13T03:25:53.726Z,44.91
2019-05-13T03:28:22.311Z,44.93
2019-05-13T03:30:55.588Z,44.90
2019-05-13T03:33:27.461Z,44.91
2019-05-13T03:35:54.988Z,44.92
2019-05-13T03:38:22.523Z,44.97
2019-05-13T03:40:52.449Z,44.96
2019-05-13T03:43:22.754Z,44.96
2019-05-13T03:45:52.394Z,44.98
2019-05-13T03:48:19.046Z,45.01
2019-05-13T03:50:47.045Z,44.97
2019-05-13T03:53:15.138Z,45.01
2019-05-13T03:55:43.624Z,45.01
2019-05-13T03:58:13.076Z,44.97
2019-05-13T04:00:42.703Z,44.96
2019-05-13T04:03:13.805Z,44.96
2019-05-13T04:05:43.639Z,44.97
2019-05-13T04:08:13.243Z,44.98
2019-05-13T04:10:42.248Z,44.96
2019-05-13T04:13:12.389Z,45.04
2019-05-13T04:15:42.782Z,45.01
2019-05-13T04:18:12.558Z,45.00
2019-05-13T04:20:42.406Z,45.04
2019-05-13T04:23:12.567Z,45.10
2019-05-13T04:25:41.312Z,45.06
2019-05-13T04:28:09.018Z,45.14
2019-05-13T04:30:37.014Z,45.19
2019-05-13T04:33:05.038Z,45.25
2019-05-13T04:35:33.596Z,45.24
2019-05-13T04:38:03.440Z,45.19
2019-05-13T04:40:33.230Z,45.17
2019-05-13T04:43:02.906Z,45.13
2019-05-13T04:45:33.038Z,45.11
2019-05-13T04:48:03.249Z,45.14
2019-05-13T04:50:32.966Z,45.16
2019-05-13T04:53:03.176Z,45.18
2019-05-13T04:55:32.452Z,45.15
2019-05-13T04:58:03.138Z,45.22
2019-05-13T05:00:32.181Z,45.19
2019-05-13T05:02:59.167Z,45.17
2019-05-13T05:05:27.215Z,45.12
2019-05-13T05:07:55.215Z,45.15
2019-05-13T05:10:33.835Z,45.29
2019-05-13T05:12:52.971Z,45.19
2019-05-13T05:15:23.356Z,45.20
2019-05-13T05:17:52.214Z,45.24
2019-05-13T05:20:23.029Z,45.26
2019-05-13T05:22:51.243Z,45.37
2019-05-13T05:25:19.383Z,45.34
2019-05-13T05:27:47.398Z,45.35
2019-05-13T05:30:15.397Z,45.27
2019-05-13T05:32:43.448Z,45.32
2019-05-13T05:35:11.904Z,45.31
2019-05-13T05:37:41.606Z,45.30
2019-05-13T05:40:12.208Z,45.34
2019-05-13T05:42:41.270Z,45.25
2019-05-13T05:45:11.465Z,45.30
2019-05-13T05:47:39.091Z,45.16
2019-05-13T05:50:07.131Z,45.12
2019-05-13T05:52:35.131Z,44.90
2019-05-13T05:55:03.175Z,44.86
2019-05-13T05:57:31.512Z,44.95
2019-05-13T06:00:02.106Z,45.14
2019-05-13T06:02:32.017Z,45.20
2019-05-13T06:05:02.152Z,45.26
2019-05-13T06:07:28.976Z,44.84
2019-05-13T06:09:57.021Z,44.52
2019-05-13T06:12:25.029Z,44.44
2019-05-13T06:14:53.061Z,44.22
2019-05-13T06:17:21.912Z,44.18
2019-05-13T06:19:51.229Z,44.06
2019-05-13T06:22:21.476Z,43.87
2019-05-13T06:24:49.181Z,45.04
2019-05-13T06:27:17.251Z,44.66
2019-05-13T06:29:48.663Z,44.70
2019-05-13T06:32:22.372Z,45.03
2019-05-13T06:34:44.867Z,45.23
2019-05-13T06:37:12.913Z,45.16
2019-05-13T06:39:41.994Z,45.61
2019-05-13T06:42:11.633Z,45.24
2019-05-13T06:44:41.477Z,44.92
2019-05-13T06:47:11.423Z,45.17
2019-05-13T06:49:39.401Z,45.27
2019-05-13T06:52:07.448Z,44.96
2019-05-13T06:54:35.508Z,44.82
2019-05-13T06:57:06.088Z,45.14
2019-05-13T06:59:34.046Z,44.75
2019-05-13T07:02:02.464Z,44.52
2019-05-13T07:04:32.735Z,45.00
2019-05-13T07:07:12.061Z,44.72
2019-05-13T07:09:32.296Z,44.24
2019-05-13T07:12:02.532Z,44.32
2019-05-13T07:14:32.165Z,44.60
2019-05-13T07:17:01.810Z,43.93
2019-05-13T07:19:31.914Z,43.88
2019-05-13T07:21:59.017Z,44.35
2019-05-13T07:24:27.023Z,44.48
2019-05-13T07:26:55.081Z,44.32
2019-05-13T07:29:24.236Z,44.08
2019-05-13T07:31:52.408Z,43.87
2019-05-13T07:34:24.639Z,43.94
2019-05-13T07:36:51.318Z,44.22
2019-05-13T07:39:22.183Z,43.94
2019-05-13T07:41:49.243Z,43.92
2019-05-13T07:44:17.361Z,43.91
2019-05-13T07:46:45.650Z,43.86
2019-05-13T07:49:13.786Z,43.85
2019-05-13T07:51:42.210Z,43.68
2019-05-13T07:54:11.393Z,43.44
2019-05-13T07:56:42.383Z,43.45
2019-05-13T07:59:12.028Z,43.41
2019-05-13T08:01:41.544Z,43.28
2019-05-13T08:04:19.175Z,43.24
2019-05-13T08:06:41.411Z,43.05
2019-05-13T08:09:08.472Z,43.10
2019-05-13T08:11:53.694Z,42.96
2019-05-13T08:14:06.238Z,43.03
2019-05-13T08:16:34.873Z,42.93
2019-05-13T08:19:02.878Z,42.78
2019-05-13T08:21:32.301Z,43.02
2019-05-13T08:24:02.815Z,42.88
2019-05-13T08:26:32.302Z,43.05
2019-05-13T08:29:03.213Z,43.07
2019-05-13T08:31:32.073Z,42.50
2019-05-13T08:34:02.209Z,42.42
2019-05-13T08:36:29.317Z,42.68
2019-05-13T08:38:57.357Z,42.40
2019-05-13T08:41:25.374Z,42.29
2019-05-13T08:43:53.376Z,42.28
2019-05-13T08:46:21.968Z,42.23
2019-05-13T08:48:51.824Z,42.22
2019-05-13T08:51:22.066Z,42.19
2019-05-13T08:53:51.692Z,42.21
2019-05-13T08:56:21.682Z,42.20
2019-05-13T08:58:49.206Z,42.14
2019-05-13T09:01:17.291Z,42.13
2019-05-13T09:03:45.288Z,42.12
2019-05-13T09:06:13.269Z,42.10
2019-05-13T09:08:42.460Z,42.06
2019-05-13T09:11:12.044Z,42.21
2019-05-13T09:13:42.310Z,42.15
2019-05-13T09:16:13.123Z,42.07
2019-05-13T09:18:42.427Z,41.90
2019-05-13T09:21:11.526Z,42.10
2019-05-13T09:23:41.306Z,42.33
2019-05-13T09:26:08.818Z,42.76
2019-05-13T09:28:36.853Z,42.74
2019-05-13T09:31:04.889Z,42.62
2019-05-13T09:33:32.952Z,42.69
2019-05-13T09:38:32.602Z,42.48
2019-05-13T09:41:01.838Z,43.18
2019-05-13T09:43:31.480Z,42.96
2019-05-13T09:46:01.623Z,43.08
2019-05-13T09:48:31.771Z,42.25
2019-05-13T09:50:59.272Z,42.23
2019-05-13T09:53:27.332Z,42.61
2019-05-13T09:55:55.306Z,42.51
2019-05-13T09:58:23.444Z,42.65
2019-05-13T10:00:52.945Z,42.46
2019-05-13T10:03:26.674Z,42.34
2019-05-13T10:05:51.855Z,42.18
2019-05-13T10:08:21.999Z,42.12
2019-05-13T10:10:52.325Z,42.51
2019-05-13T10:13:22.640Z,44.70
2019-05-13T10:15:49.803Z,44.76
2019-05-13T10:18:17.797Z,46.27
2019-05-13T10:20:46.232Z,50.25
2019-05-13T10:23:14.334Z,50.08
2019-05-13T10:25:42.431Z,46.13
2019-05-13T10:28:12.680Z,48.09
2019-05-13T10:30:43.511Z,44.65
2019-05-13T10:33:11.879Z,46.52
2019-05-13T10:35:39.570Z,47.53
2019-05-13T10:38:08.320Z,48.24
2019-05-13T10:40:36.415Z,47.27
2019-05-13T10:43:04.414Z,47.74
2019-05-13T10:45:33.336Z,48.22
2019-05-13T10:48:02.780Z,48.33
2019-05-13T10:50:31.680Z,48.42
2019-05-13T10:53:02.736Z,47.81
2019-05-13T10:55:48.875Z,47.36
2019-05-13T10:58:16.928Z,47.69
2019-05-13T11:00:44.958Z,46.88
2019-05-13T11:03:13.010Z,47.68
2019-05-13T11:05:44.466Z,47.46
2019-05-13T11:08:10.884Z,46.38
2019-05-13T11:10:38.859Z,45.57
2019-05-13T11:13:10.630Z,47.58
2019-05-13T11:15:41.148Z,47.39
2019-05-13T11:18:06.714Z,48.27
2019-05-13T11:20:36.427Z,48.46
2019-05-13T11:23:04.447Z,47.92
2019-05-13T11:25:32.533Z,46.71
2019-05-13T11:28:01.662Z,47.69
2019-05-13T11:30:31.994Z,48.04
2019-05-13T11:33:01.691Z,47.90
2019-05-13T11:35:31.558Z,47.60
2019-05-13T11:38:01.181Z,47.25
2019-05-13T11:40:31.728Z,47.27
2019-05-13T11:43:01.273Z,46.75
2019-05-13T11:45:31.408Z,47.43
2019-05-13T11:48:02.061Z,46.58
2019-05-13T11:50:28.548Z,45.80
2019-05-13T11:52:56.773Z,45.27
2019-05-13T11:55:24.772Z,46.46
2019-05-13T11:57:53.301Z,46.73
2019-05-13T12:00:21.457Z,47.55
2019-05-13T12:02:53.951Z,47.10
2019-05-13T12:05:22.692Z,46.77
2019-05-13T12:07:53.311Z,46.22
2019-05-13T12:10:22.608Z,47.30
2019-05-13T12:12:49.360Z,47.71
2019-05-13T12:17:47.156Z,47.25
2019-05-13T12:20:15.157Z,47.75
2019-05-13T12:22:43.378Z,47.35
2019-05-13T12:25:13.761Z,47.61
2019-05-13T12:27:41.945Z,48.06
2019-05-13T12:30:12.406Z,47.45
2019-05-13T12:32:43.477Z,46.48
2019-05-13T12:35:09.738Z,48.34
2019-05-13T12:37:41.925Z,48.61
2019-05-13T12:40:09.034Z,47.97
2019-05-13T12:42:43.115Z,49.06
2019-05-13T12:45:10.262Z,49.77
2019-05-13T12:47:36.516Z,49.11
2019-05-13T12:50:04.523Z,47.70
2019-05-13T12:52:32.763Z,49.68
2019-05-13T12:55:03.232Z,48.87
2019-05-13T12:57:32.496Z,48.90
2019-05-13T13:00:02.315Z,49.45
2019-05-13T13:02:32.570Z,49.48
2019-05-13T13:05:13.377Z,49.35
2019-05-13T13:07:32.505Z,49.83
2019-05-13T13:09:59.344Z,49.04
2019-05-13T13:12:34.770Z,48.84
2019-05-13T13:14:57.113Z,48.46
2019-05-13T13:17:25.179Z,48.11
2019-05-13T13:19:54.756Z,49.88
2019-05-13T13:22:25.471Z,49.17
2019-05-13T13:24:57.103Z,49.76
2019-05-13T13:27:37.804Z,49.44
2019-05-13T13:30:02.277Z,49.03
2019-05-13T13:32:24.669Z,49.16
2019-05-13T13:34:54.851Z,49.09
2019-05-13T13:37:22.588Z,49.92
2019-05-13T13:39:55.239Z,49.93
2019-05-13T13:42:20.471Z,49.61
2019-05-13T13:44:48.512Z,49.44
2019-05-13T13:47:16.533Z,48.85
2019-05-13T13:49:44.712Z,49.66
2019-05-13T13:52:16.140Z,49.04
2019-05-13T13:54:44.248Z,48.92
2019-05-13T13:57:13.378Z,48.26
2019-05-13T14:00:14.819Z,49.33
2019-05-13T14:02:13.430Z,48.38
2019-05-13T14:04:42.979Z,48.20
2019-05-13T14:06:25.163Z,42.63
2019-05-13T14:07:05.357Z,47.32
2019-05-13T14:07:28.052Z,48.74
2019-05-13T14:09:41.028Z,49.08
2019-05-13T14:12:11.348Z,49.08
2019-05-13T14:14:41.411Z,48.06
2019-05-13T14:17:11.331Z,48.60
2019-05-13T14:19:41.945Z,48.86
2019-05-13T14:22:09.232Z,49.16
2019-05-13T14:24:37.324Z,48.83
2019-05-13T14:27:05.634Z,48.04
2019-05-13T14:29:40.983Z,48.96
2019-05-13T14:32:03.380Z,48.33
2019-05-13T14:34:31.970Z,48.52
2019-05-13T14:37:01.199Z,48.59
2019-05-13T14:39:31.348Z,48.76
2019-05-13T14:41:59.088Z,48.14
2019-05-13T14:44:27.137Z,49.25
2019-05-13T14:46:55.170Z,48.80
2019-05-13T14:49:23.188Z,48.98
2019-05-13T14:51:52.303Z,48.25
2019-05-13T14:54:20.988Z,49.02
2019-05-13T14:56:51.835Z,48.98
2019-05-13T14:59:18.772Z,49.29
2019-05-13T15:01:46.817Z,49.03
2019-05-13T15:04:14.859Z,48.89
2019-05-13T15:06:42.920Z,48.98
2019-05-13T15:09:12.570Z,48.82
2019-05-13T15:11:41.937Z,49.00
2019-05-13T15:14:11.672Z,48.81
2019-05-13T15:16:42.174Z,49.04
2019-05-13T15:19:11.798Z,48.78
2019-05-13T15:21:41.283Z,48.90
2019-05-13T15:24:11.644Z,48.66
2019-05-13T15:26:38.928Z,48.32
2019-05-13T15:29:06.938Z,48.33
2019-05-13T15:31:34.965Z,48.17
2019-05-13T15:34:02.972Z,48.19
2019-05-13T15:36:31.593Z,48.17
2019-05-13T15:39:01.396Z,48.01
2019-05-13T15:41:29.595Z,46.96
2019-05-13T15:43:57.701Z,47.10
2019-05-13T15:46:25.746Z,47.52
2019-05-13T15:48:53.767Z,47.78
2019-05-13T15:51:22.196Z,46.94
2019-05-13T15:53:51.785Z,47.72
2019-05-13T15:56:22.435Z,47.61
2019-05-13T15:58:52.659Z,47.38
2019-05-13T16:01:22.682Z,47.92
2019-05-13T16:03:49.434Z,48.22
2019-05-13T16:06:17.442Z,48.07
2019-05-13T16:08:45.467Z,48.04
2019-05-13T16:11:13.474Z,47.74
2019-05-13T16:13:41.781Z,47.89
2019-05-13T16:16:12.135Z,47.55
2019-05-13T16:18:41.764Z,47.44
2019-05-13T16:21:11.487Z,47.38
2019-05-13T16:23:39.472Z,47.21
2019-05-13T16:26:07.564Z,47.45
2019-05-13T16:28:35.767Z,47.30
2019-05-13T16:31:03.829Z,47.36
2019-05-13T16:33:31.844Z,47.35
2019-05-13T16:36:02.278Z,48.07
2019-05-13T16:38:32.607Z,47.68
2019-05-13T16:40:59.766Z,47.49
2019-05-13T16:43:27.819Z,47.44
2019-05-13T16:45:55.928Z,47.53
2019-05-13T16:48:23.907Z,47.34
2019-05-13T16:50:52.052Z,47.13
2019-05-13T16:53:25.512Z,46.88
2019-05-13T16:55:51.044Z,47.04
2019-05-13T16:58:24.445Z,47.03
2019-05-13T17:00:51.612Z,46.94
2019-05-13T17:03:37.492Z,46.88
2019-05-13T17:06:05.492Z,46.74
2019-05-13T17:08:33.526Z,46.75
2019-05-13T17:11:02.180Z,46.60
2019-05-13T17:13:31.503Z,46.30
2019-05-13T17:16:01.677Z,46.33
2019-05-13T17:18:32.109Z,46.24
2019-05-13T17:21:01.268Z,46.28
2019-05-13T17:23:29.086Z,46.43
2019-05-13T17:25:57.144Z,46.59
2019-05-13T17:28:25.268Z,46.49
2019-05-13T17:30:53.337Z,46.56
2019-05-13T17:33:23.021Z,46.40
2019-05-13T17:35:51.244Z,46.47
2019-05-13T17:38:19.237Z,46.47
2019-05-13T17:40:49.989Z,46.41
2019-05-13T17:43:17.134Z,46.33
2019-05-13T17:45:45.228Z,46.30
2019-05-13T17:48:25.723Z,45.98
2019-05-13T17:50:43.032Z,46.09
2019-05-13T17:53:11.507Z,46.02
2019-05-13T17:55:39.661Z,46.00
2019-05-13T17:58:07.839Z,45.80
2019-05-13T18:00:35.918Z,45.90
2019-05-13T18:03:04.002Z,45.81
2019-05-13T18:05:32.071Z,45.65
2019-05-13T18:08:01.860Z,45.55
2019-05-13T18:10:31.851Z,45.53
2019-05-13T18:13:01.731Z,45.47
2019-05-13T18:15:31.427Z,45.50
2019-05-13T18:18:01.508Z,45.49
2019-05-13T18:20:29.576Z,45.55
2019-05-13T18:22:57.629Z,45.56
2019-05-13T18:25:26.021Z,45.60
2019-05-13T18:27:54.070Z,45.53
2019-05-13T18:30:22.191Z,45.53
2019-05-13T18:32:51.766Z,45.53
2019-05-13T18:35:21.997Z,45.45
2019-05-13T18:37:49.821Z,45.24
2019-05-13T18:40:18.054Z,44.58
2019-05-13T18:42:46.103Z,44.74
2019-05-13T18:45:14.282Z,44.48
2019-05-13T18:47:42.571Z,44.35
2019-05-13T18:50:11.553Z,44.35
2019-05-13T18:52:42.065Z,44.50
2019-05-13T18:55:12.215Z,44.33
2019-05-13T18:57:39.652Z,44.24
2019-05-13T19:00:07.778Z,44.27
2019-05-13T19:02:35.788Z,44.29
2019-05-13T19:05:03.845Z,44.31
2019-05-13T19:07:31.894Z,44.34
2019-05-13T19:10:02.324Z,44.43
2019-05-13T19:12:31.486Z,44.36
2019-05-13T19:15:02.225Z,44.39
2019-05-13T19:17:32.071Z,44.45
2019-05-13T19:19:59.399Z,44.48
2019-05-13T19:22:27.417Z,44.66
2019-05-13T19:24:56.851Z,44.59
2019-05-13T19:27:25.518Z,44.57
2019-05-13T19:29:53.598Z,44.62
2019-05-13T19:32:21.971Z,44.67
2019-05-13T19:34:51.615Z,44.67
2019-05-13T19:37:22.393Z,44.84
2019-05-13T19:39:50.736Z,45.08
2019-05-13T19:42:18.823Z,44.76
2019-05-13T19:44:46.926Z,44.81
2019-05-13T19:47:15.075Z,45.18
2019-05-13T19:49:46.539Z,45.51
2019-05-13T19:52:12.987Z,45.59
2019-05-13T19:54:41.981Z,45.58
2019-05-13T19:57:11.888Z,45.60
2019-05-13T19:59:42.484Z,45.27
2019-05-13T20:02:12.191Z,44.82
2019-05-13T20:04:41.353Z,44.44
2019-05-13T20:07:11.623Z,44.11
2019-05-13T20:09:39.398Z,43.71
2019-05-13T20:12:07.409Z,43.35
2019-05-13T20:14:35.490Z,43.48
2019-05-13T20:17:03.489Z,43.58
2019-05-13T20:19:45.737Z,44.48
2019-05-13T20:22:02.376Z,45.21
2019-05-13T20:24:31.331Z,44.48
2019-05-13T20:27:01.501Z,44.88
2019-05-13T20:29:29.800Z,44.52
2019-05-13T20:31:57.839Z,45.07
2019-05-13T20:34:26.034Z,44.13
2019-05-13T20:36:54.102Z,44.70
2019-05-13T20:39:22.559Z,44.83
2019-05-13T20:41:55.535Z,43.86
2019-05-13T20:44:22.128Z,44.09
2019-05-13T20:46:51.835Z,44.61
2019-05-13T20:49:21.842Z,44.61
2019-05-13T20:51:51.652Z,44.76
2019-05-13T20:54:22.028Z,44.79
2019-05-13T20:56:51.698Z,44.95
2019-05-13T20:59:21.606Z,44.91
2019-05-13T21:01:51.200Z,44.84
2019-05-13T21:04:21.397Z,44.60
2019-05-13T21:06:48.856Z,45.24
2019-05-13T21:09:17.280Z,44.91
2019-05-13T21:11:45.342Z,44.93
2019-05-13T21:14:13.416Z,45.28
2019-05-13T21:16:41.774Z,44.92
2019-05-13T21:19:12.232Z,45.37
2019-05-13T21:21:41.646Z,45.43
2019-05-13T21:24:10.496Z,45.07
2019-05-13T21:26:38.508Z,45.40
2019-05-13T21:29:06.756Z,45.36
2019-05-13T21:31:34.807Z,45.30
2019-05-13T21:34:02.875Z,45.46
2019-05-13T21:36:31.323Z,45.32
2019-05-13T21:39:01.135Z,45.25
2019-05-13T21:41:31.540Z,44.80
2019-05-13T21:44:01.296Z,44.59
2019-05-13T21:46:29.498Z,44.46
2019-05-13T21:48:57.847Z,44.53
2019-05-13T21:51:26.025Z,44.61
2019-05-13T21:53:54.147Z,44.58
2019-05-13T21:56:23.200Z,44.62
2019-05-13T21:58:52.210Z,44.63
2019-05-13T22:01:23.146Z,45.01
2019-05-13T22:03:51.421Z,45.17
2019-05-13T22:06:21.631Z,45.21
2019-05-13T22:08:51.659Z,45.20
2019-05-13T22:11:19.252Z,45.02
2019-05-13T22:13:47.425Z,44.93
2019-05-13T22:16:15.432Z,45.04
2019-05-13T22:18:43.444Z,45.15
2019-05-13T22:21:11.916Z,45.21
2019-05-13T22:23:41.123Z,45.19
2019-05-13T22:26:11.516Z,45.13
2019-05-13T22:28:39.118Z,45.26
2019-05-13T22:31:07.132Z,45.24
2019-05-13T22:33:35.215Z,45.25
2019-05-13T22:36:03.233Z,45.17
2019-05-13T22:38:32.394Z,45.15
2019-05-13T22:41:01.212Z,45.16
2019-05-13T22:43:31.754Z,45.11
2019-05-13T22:45:59.308Z,45.15
2019-05-13T22:48:27.319Z,45.15
2019-05-13T22:50:55.370Z,45.23
2019-05-13T22:53:23.447Z,45.19
2019-05-13T22:55:52.093Z,45.15
2019-05-13T22:58:22.366Z,45.13
2019-05-13T23:00:51.717Z,45.25
2019-05-13T23:03:19.912Z,45.20
2019-05-13T23:05:47.985Z,45.23
2019-05-13T23:08:16.046Z,45.19
2019-05-13T23:10:44.046Z,45.20
2019-05-13T23:13:12.091Z,45.23
2019-05-13T23:15:40.146Z,45.24
2019-05-13T23:18:08.154Z,45.32
2019-05-13T23:20:36.177Z,45.24
2019-05-13T23:23:04.223Z,45.09
2019-05-13T23:25:32.237Z,45.15
2019-05-13T23:28:00.298Z,45.03
2019-05-13T23:30:28.398Z,45.17
2019-05-13T23:32:56.455Z,45.18
2019-05-13T23:35:24.539Z,45.19
2019-05-13T23:37:52.595Z,45.23
2019-05-13T23:40:20.664Z,45.22
2019-05-13T23:42:48.691Z,45.25
2019-05-13T23:45:16.735Z,45.31
2019-05-13T23:47:44.792Z,45.25
2019-05-13T23:50:12.819Z,45.35
2019-05-13T23:52:41.837Z,45.30
2019-05-13T23:55:11.002Z,45.26
2019-05-13T23:57:39.222Z,45.16
